Time,TemperatureF,DewpointF,PressureIn,WindDirection,WindDirectionDegrees,WindSpeedMPH,WindSpeedGustMPH,Humidity,HourlyPrecipIn,Conditions,Clouds,dailyrainin,SoftwareType,DateUTC
2013-07-30 00:00:00,70.0,55.0,-100.00,North,-999,-999.0,-999.0,58,0.00,,,-99.99,,2013-07-30 07:00:00,
2013-07-30 00:33:00,70.0,55.0,-100.00,North,-999,-999.0,-999.0,58,0.00,,,-99.99,,2013-07-30 07:33:00,
2013-07-30 00:43:00,70.0,55.0,-100.00,North,-999,-999.0,-999.0,58,0.00,,,-99.99,,2013-07-30 07:43:00,
2013-07-30 00:53:00,70.0,55.0,-100.00,North,-999,-999.0,-999.0,58,0.00,,,-99.99,,2013-07-30 07:53:00,
2013-07-30 01:00:00,69.0,56.0,-100.00,North,-999,-999.0,-999.0,62,0.00,,,-99.99,,2013-07-30 08:00:00,
2013-07-30 01:33:00,69.0,56.0,-100.00,North,-999,-999.0,-999.0,62,0.00,,,-99.99,,2013-07-30 08:33:00,
2013-07-30 01:43:00,69.0,56.0,-100.00,North,-999,-999.0,-999.0,62,0.00,,,-99.99,,2013-07-30 08:43:00,
2013-07-30 01:53:00,69.0,56.0,-100.00,North,-999,-999.0,-999.0,62,0.00,,,-99.99,,2013-07-30 08:53:00,
2013-07-30 02:00:00,67.0,56.0,-100.00,North,-999,-999.0,-999.0,68,0.00,,,-99.99,,2013-07-30 09:00:00,
2013-07-30 02:33:00,67.0,56.0,-100.00,North,-999,-999.0,-999.0,68,0.00,,,-99.99,,2013-07-30 09:33:00,
2013-07-30 02:53:00,67.0,56.0,-100.00,North,-999,-999.0,-999.0,68,0.00,,,-99.99,,2013-07-30 09:53:00,
2013-07-30 03:00:00,66.0,57.0,-100.00,North,-999,-999.0,-999.0,72,0.00,,,-99.99,,2013-07-30 10:00:00,
2013-07-30 03:33:00,66.0,57.0,-100.00,North,-999,-999.0,-999.0,72,0.00,,,-99.99,,2013-07-30 10:33:00,
2013-07-30 03:52:00,66.0,57.0,-100.00,North,-999,-999.0,-999.0,72,0.00,,,-99.99,,2013-07-30 10:52:00,
2013-07-30 04:33:00,63.0,57.0,-100.00,North,-999,-999.0,-999.0,78,0.00,,,-99.99,,2013-07-30 11:33:00,
2013-07-30 04:53:00,63.0,57.0,-100.00,North,-999,-999.0,-999.0,78,0.00,,,-99.99,,2013-07-30 11:53:00,
2013-07-30 05:00:00,62.0,56.0,-100.00,North,-999,-999.0,-999.0,80,0.00,,,-99.99,,2013-07-30 12:00:00,
2013-07-30 05:33:00,62.0,56.0,-100.00,North,-999,-999.0,-999.0,80,0.00,,,-99.99,,2013-07-30 12:33:00,
2013-07-30 05:53:00,62.0,56.0,-100.00,North,-999,-999.0,-999.0,80,0.00,,,-99.99,,2013-07-30 12:53:00,
2013-07-30 06:33:00,61.0,56.0,-100.00,North,-999,-999.0,-999.0,84,0.00,,,-99.99,,2013-07-30 13:33:00,
2013-07-30 06:43:00,61.0,56.0,-100.00,North,-999,-999.0,-999.0,84,0.00,,,-99.99,,2013-07-30 13:43:00,
2013-07-30 06:52:00,61.0,56.0,-100.00,North,-999,-999.0,-999.0,84,0.00,,,-99.99,,2013-07-30 13:52:00,
2013-07-30 07:33:00,66.0,60.0,-100.00,North,-999,-999.0,-999.0,79,0.00,,,-99.99,,2013-07-30 14:33:00,
2013-07-30 07:43:00,66.0,60.0,-100.00,North,-999,-999.0,-999.0,79,0.00,,,-99.99,,2013-07-30 14:43:00,
2013-07-30 07:53:00,66.0,60.0,-100.00,North,-999,-999.0,-999.0,79,0.00,,,-99.99,,2013-07-30 14:53:00,
2013-07-30 08:00:00,74.0,62.0,-100.00,North,-999,-999.0,-999.0,64,0.00,,,-99.99,,2013-07-30 15:00:00,
2013-07-30 08:33:00,74.0,62.0,-100.00,North,-999,-999.0,-999.0,64,0.00,,,-99.99,,2013-07-30 15:33:00,
2013-07-30 08:53:00,74.0,62.0,-100.00,North,-999,-999.0,-999.0,64,0.00,,,-99.99,,2013-07-30 15:53:00,
2013-07-30 09:00:00,81.0,59.0,-100.00,North,-999,-999.0,-999.0,46,0.00,,,-99.99,,2013-07-30 16:00:00,
2013-07-30 09:33:00,81.0,59.0,-100.00,North,-999,-999.0,-999.0,46,0.00,,,-99.99,,2013-07-30 16:33:00,
2013-07-30 09:52:00,81.0,59.0,-100.00,North,-999,-999.0,-999.0,46,0.00,,,-99.99,,2013-07-30 16:52:00,
2013-07-30 10:00:00,82.0,50.0,-100.00,North,-999,-999.0,-999.0,33,0.00,,,-99.99,,2013-07-30 17:00:00,
2013-07-30 10:32:00,82.0,50.0,-100.00,North,-999,-999.0,-999.0,33,0.00,,,-99.99,,2013-07-30 17:32:00,
2013-07-30 10:53:00,82.0,50.0,-100.00,North,-999,-999.0,-999.0,33,0.00,,,-99.99,,2013-07-30 17:53:00,
2013-07-30 11:00:00,83.0,53.0,-100.00,North,-999,-999.0,-999.0,35,0.00,,,-99.99,,2013-07-30 18:00:00,
2013-07-30 11:32:00,83.0,53.0,-100.00,North,-999,-999.0,-999.0,35,0.00,,,-99.99,,2013-07-30 18:32:00,
2013-07-30 11:43:00,83.0,53.0,-100.00,North,-999,-999.0,-999.0,35,0.00,,,-99.99,,2013-07-30 18:43:00,
2013-07-30 11:52:00,83.0,53.0,-100.00,North,-999,-999.0,-999.0,35,0.00,,,-99.99,,2013-07-30 18:52:00,
2013-07-30 12:33:00,88.0,52.0,-100.00,North,-999,-999.0,-999.0,29,0.00,,,-99.99,,2013-07-30 19:33:00,
2013-07-30 12:44:00,88.0,52.0,-100.00,North,-999,-999.0,-999.0,29,0.00,,,-99.99,,2013-07-30 19:44:00,
2013-07-30 12:52:00,88.0,52.0,-100.00,North,-999,-999.0,-999.0,29,0.00,,,-99.99,,2013-07-30 19:52:00,
2013-07-30 13:00:00,92.0,51.0,-100.00,North,-999,-999.0,-999.0,24,0.00,,,-99.99,,2013-07-30 20:00:00,
2013-07-30 13:33:00,92.0,51.0,-100.00,North,-999,-999.0,-999.0,24,0.00,,,-99.99,,2013-07-30 20:33:00,
2013-07-30 13:43:00,92.0,51.0,-100.00,North,-999,-999.0,-999.0,24,0.00,,,-99.99,,2013-07-30 20:43:00,
2013-07-30 13:52:00,92.0,51.0,-100.00,North,-999,-999.0,-999.0,24,0.00,,,-99.99,,2013-07-30 20:52:00,
2013-07-30 14:00:00,92.0,50.0,-100.00,North,-999,-999.0,-999.0,24,0.00,,,-99.99,,2013-07-30 21:00:00,
2013-07-30 14:32:00,92.0,50.0,-100.00,North,-999,-999.0,-999.0,24,0.00,,,-99.99,,2013-07-30 21:32:00,
2013-07-30 14:42:00,92.0,50.0,-100.00,North,-999,-999.0,-999.0,24,0.00,,,-99.99,,2013-07-30 21:42:00,
2013-07-30 14:53:00,92.0,50.0,-100.00,North,-999,-999.0,-999.0,24,0.00,,,-99.99,,2013-07-30 21:53:00,
2013-07-30 15:00:00,93.0,48.0,-100.00,North,-999,-999.0,-999.0,21,0.00,,,-99.99,,2013-07-30 22:00:00,
2013-07-30 15:32:00,93.0,48.0,-100.00,North,-999,-999.0,-999.0,21,0.00,,,-99.99,,2013-07-30 22:32:00,
2013-07-30 15:52:00,93.0,48.0,-100.00,North,-999,-999.0,-999.0,21,0.00,,,-99.99,,2013-07-30 22:52:00,
2013-07-30 16:00:00,93.0,50.0,-100.00,North,-999,-999.0,-999.0,23,0.00,,,-99.99,,2013-07-30 23:00:00,
2013-07-30 16:32:00,93.0,50.0,-100.00,North,-999,-999.0,-999.0,23,0.00,,,-99.99,,2013-07-30 23:32:00,
2013-07-30 16:42:00,93.0,50.0,-100.00,North,-999,-999.0,-999.0,23,0.00,,,-99.99,,2013-07-30 23:42:00,
2013-07-30 16:53:00,93.0,50.0,-100.00,North,-999,-999.0,-999.0,23,0.00,,,-99.99,,2013-07-30 23:53:00,
2013-07-30 18:00:00,88.0,50.0,-100.00,North,-999,-999.0,-999.0,26,0.00,,,-99.99,,2013-07-31 01:00:00,
2013-07-30 18:32:00,88.0,50.0,-100.00,North,-999,-999.0,-999.0,26,0.00,,,-99.99,,2013-07-31 01:32:00,
2013-07-30 18:43:00,88.0,50.0,-100.00,North,-999,-999.0,-999.0,26,0.00,,,-99.99,,2013-07-31 01:43:00,
2013-07-30 18:52:00,88.0,50.0,-100.00,North,-999,-999.0,-999.0,26,0.00,,,-99.99,,2013-07-31 01:52:00,
2013-07-30 19:00:00,87.0,48.0,-100.00,North,-999,-999.0,-999.0,25,0.00,,,-99.99,,2013-07-31 02:00:00,
2013-07-30 19:32:00,87.0,48.0,-100.00,North,-999,-999.0,-999.0,25,0.00,,,-99.99,,2013-07-31 02:32:00,
2013-07-30 19:43:00,87.0,48.0,-100.00,North,-999,-999.0,-999.0,25,0.00,,,-99.99,,2013-07-31 02:43:00,
2013-07-30 19:52:00,87.0,48.0,-100.00,North,-999,-999.0,-999.0,25,0.00,,,-99.99,,2013-07-31 02:52:00,
2013-07-30 20:00:00,79.0,50.0,-100.00,North,-999,-999.0,-999.0,37,0.00,,,-99.99,,2013-07-31 03:00:00,
2013-07-30 20:52:00,79.0,50.0,-100.00,North,-999,-999.0,-999.0,37,0.00,,,-99.99,,2013-07-31 03:52:00,
2013-07-30 21:00:00,74.0,54.0,-100.00,North,-999,-999.0,-999.0,48,0.00,,,-99.99,,2013-07-31 04:00:00,
2013-07-30 21:52:00,74.0,54.0,-100.00,North,-999,-999.0,-999.0,48,0.00,,,-99.99,,2013-07-31 04:52:00,
2013-07-30 22:00:00,73.0,55.0,-100.00,North,-999,-999.0,-999.0,53,0.00,,,-99.99,,2013-07-31 05:00:00,
2013-07-30 22:22:00,73.0,55.0,-100.00,North,-999,-999.0,-999.0,53,0.00,,,-99.99,,2013-07-31 05:22:00,
2013-07-30 22:32:00,73.0,55.0,-100.00,North,-999,-999.0,-999.0,53,0.00,,,-99.99,,2013-07-31 05:32:00,
2013-07-30 22:52:00,73.0,55.0,-100.00,North,-999,-999.0,-999.0,53,0.00,,,-99.99,,2013-07-31 05:52:00,